createdAt,value
2022-09-05T00:02:04.129Z,46.99
2022-09-05T00:04:39.756Z,47.01
2022-09-05T00:07:34.410Z,46.98
2022-09-05T00:10:08.982Z,47.14
2022-09-05T00:12:35.473Z,47.06
2022-09-05T00:15:46.761Z,47.18
2022-09-05T00:21:17.746Z,47.29
2022-09-05T00:24:32.019Z,47.16
2022-09-05T00:24:42.117Z,47.02
2022-09-05T00:27:22.977Z,47.11
2022-09-05T00:31:07.635Z,47.36
2022-09-05T00:33:03.629Z,47.33
2022-09-05T00:35:48.439Z,47.23
2022-09-05T00:38:20.425Z,47.05
2022-09-05T00:40:56.977Z,47.21
2022-09-05T00:43:27.549Z,47.33
2022-09-05T00:46:02.865Z,47.23
2022-09-05T00:48:49.681Z,47.10
2022-09-05T00:51:32.137Z,47.16
2022-09-05T00:54:26.310Z,47.00
2022-09-05T00:57:37.573Z,47.05
2022-09-05T01:00:17.546Z,47.16
2022-09-05T01:03:22.290Z,47.02
2022-09-05T01:06:15.060Z,47.27
2022-09-05T01:08:47.597Z,47.46
2022-09-05T01:11:29.738Z,47.18
2022-09-05T01:14:17.891Z,47.13
2022-09-05T01:16:56.418Z,47.23
2022-09-05T01:19:45.302Z,47.35
2022-09-05T01:22:42.730Z,47.15
2022-09-05T01:25:27.269Z,47.24
2022-09-05T01:29:16.446Z,47.16
2022-09-05T01:31:15.306Z,47.22
2022-09-05T01:34:12.497Z,47.13
2022-09-05T01:37:26.610Z,47.01
2022-09-05T01:40:15.262Z,47.26
2022-09-05T01:43:23.779Z,47.25
2022-09-05T01:46:11.819Z,47.13
2022-09-05T01:48:57.220Z,47.02
2022-09-05T01:51:56.254Z,47.35
2022-09-05T01:54:56.892Z,47.40
2022-09-05T01:57:55.183Z,47.46
2022-09-05T02:00:30.185Z,47.30
2022-09-05T02:03:12.826Z,47.26
2022-09-05T02:05:56.337Z,47.46
2022-09-05T02:08:53.739Z,47.35
2022-09-05T02:11:38.444Z,47.29
2022-09-05T02:14:34.186Z,47.24
2022-09-05T02:17:23.443Z,47.30
2022-09-05T02:20:23.938Z,47.24
2022-09-05T02:22:56.689Z,47.26
2022-09-05T02:26:01.997Z,47.40
2022-09-05T02:28:50.823Z,47.32
2022-09-05T02:31:23.796Z,47.36
2022-09-05T02:34:02.340Z,47.33
2022-09-05T02:36:42.977Z,47.31
2022-09-05T02:45:03.660Z,47.64
2022-09-05T02:45:17.180Z,47.59
2022-09-05T02:45:26.963Z,47.35
2022-09-05T02:48:15.966Z,47.29
2022-09-05T02:52:54.911Z,47.52
2022-09-05T02:57:32.961Z,47.55
2022-09-05T02:57:36.527Z,47.62
2022-09-05T03:00:08.155Z,47.67
2022-09-05T03:02:37.196Z,47.73
2022-09-05T03:05:30.015Z,47.69
2022-09-05T03:08:17.693Z,47.94
2022-09-05T03:11:03.856Z,47.67
2022-09-05T03:13:54.452Z,47.65
2022-09-05T03:16:47.915Z,47.72
2022-09-05T03:19:33.191Z,47.71
2022-09-05T03:22:43.088Z,47.59
2022-09-05T03:25:31.083Z,47.85
2022-09-05T03:28:18.410Z,47.94
2022-09-05T03:31:22.134Z,47.83
2022-09-05T03:34:10.837Z,48.02
2022-09-05T03:37:02.235Z,47.85
2022-09-05T03:40:15.683Z,47.75
2022-09-05T03:43:20.723Z,47.87
2022-09-05T03:46:09.221Z,47.95
2022-09-05T03:48:59.415Z,48.14
2022-09-05T03:57:17.485Z,47.94
2022-09-05T03:57:26.579Z,47.90
2022-09-05T03:58:56.750Z,47.94
2022-09-05T04:02:40.371Z,48.10
2022-09-05T04:08:13.583Z,48.04
2022-09-05T04:08:15.212Z,47.91
2022-09-05T04:10:52.426Z,47.89
2022-09-05T04:13:28.950Z,47.91
2022-09-05T04:16:25.404Z,47.89
2022-09-05T04:18:55.830Z,48.10
2022-09-05T04:21:27.863Z,48.04
2022-09-05T04:24:09.538Z,48.01
2022-09-05T04:26:54.865Z,48.23
2022-09-05T04:29:57.349Z,48.05
2022-09-05T04:33:17.766Z,48.24
2022-09-05T04:35:57.316Z,48.28
2022-09-05T04:38:38.415Z,48.26
2022-09-05T04:41:11.944Z,48.28
2022-09-05T04:43:42.990Z,48.21
2022-09-05T04:46:12.329Z,48.38
2022-09-05T04:49:05.534Z,48.21
2022-09-05T04:51:39.374Z,48.49
2022-09-05T04:54:36.737Z,48.42
2022-09-05T04:57:13.864Z,48.07
2022-09-05T05:06:02.905Z,48.33
2022-09-05T05:06:05.413Z,48.47
2022-09-05T05:06:10.664Z,48.33
2022-09-05T05:09:07.142Z,48.42
2022-09-05T05:18:01.916Z,48.24
2022-09-05T05:18:07.467Z,48.02
2022-09-05T05:18:11.317Z,48.11
2022-09-05T05:20:43.055Z,47.99
2022-09-05T05:23:15.039Z,47.93
2022-09-05T05:25:43.097Z,47.90
2022-09-05T05:28:22.737Z,47.87
2022-09-05T05:30:51.764Z,48.07
2022-09-05T05:33:30.714Z,48.00
2022-09-05T05:35:58.398Z,47.77
2022-09-05T05:38:40.490Z,48.11
2022-09-05T05:41:49.354Z,47.77
2022-09-05T05:44:36.877Z,48.00
2022-09-05T05:47:03.983Z,48.08
2022-09-05T05:49:34.440Z,48.15
2022-09-05T05:52:19.533Z,47.96
2022-09-05T05:55:24.724Z,47.95
2022-09-05T05:58:15.398Z,47.84
2022-09-05T06:01:30.220Z,47.83
2022-09-05T06:04:23.351Z,47.87
2022-09-05T06:07:19.358Z,47.71
2022-09-05T06:14:58.873Z,47.85
2022-09-05T06:15:01.052Z,47.95
2022-09-05T06:16:32.333Z,47.94
2022-09-05T06:21:18.187Z,47.69
2022-09-05T06:22:54.090Z,47.82
2022-09-05T06:25:50.579Z,47.72
2022-09-05T06:28:40.545Z,47.80
2022-09-05T06:31:29.039Z,47.93
2022-09-05T06:34:35.233Z,48.08
2022-09-05T06:37:21.480Z,48.03
2022-09-05T06:40:12.000Z,47.75
2022-09-05T06:42:57.167Z,47.88
2022-09-05T06:45:46.637Z,47.68
2022-09-05T06:48:44.450Z,48.06
2022-09-05T06:51:20.803Z,48.19
2022-09-05T06:54:17.850Z,48.82
2022-09-05T06:57:06.834Z,48.76
2022-09-05T07:00:05.825Z,48.81
2022-09-05T07:02:58.486Z,48.46
2022-09-05T07:05:50.268Z,48.38
2022-09-05T07:08:35.770Z,48.89
2022-09-05T07:11:34.532Z,48.96
2022-09-05T07:14:15.019Z,48.51
2022-09-05T07:16:53.350Z,48.82
2022-09-05T07:19:27.573Z,48.88
2022-09-05T07:22:47.860Z,48.49
2022-09-05T07:25:08.773Z,49.08
2022-09-05T07:28:18.106Z,48.89
2022-09-05T07:30:31.267Z,48.89
2022-09-05T07:32:58.024Z,49.16
2022-09-05T07:35:29.321Z,49.15
2022-09-05T07:38:21.082Z,49.06
2022-09-05T07:40:53.517Z,48.97
2022-09-05T07:43:24.020Z,48.55
2022-09-05T07:46:02.180Z,49.03
2022-09-05T07:48:34.551Z,48.96
2022-09-05T07:55:35.499Z,48.77
2022-09-05T07:57:10.215Z,49.10
2022-09-05T07:57:23.139Z,49.11
2022-09-05T07:59:37.917Z,48.78
2022-09-05T08:02:05.324Z,48.69
2022-09-05T08:04:34.079Z,48.70
2022-09-05T08:07:46.468Z,48.55
2022-09-05T08:10:09.024Z,48.68
2022-09-05T08:13:24.262Z,48.41
2022-09-05T08:16:00.727Z,48.70
2022-09-05T08:18:36.605Z,48.64
2022-09-05T08:21:13.464Z,48.42
2022-09-05T08:23:59.450Z,48.47
2022-09-05T08:26:47.560Z,48.46
2022-09-05T08:29:32.702Z,48.30
2022-09-05T08:32:09.951Z,48.05
2022-09-05T08:34:45.873Z,48.54
2022-09-05T08:37:25.332Z,48.08
2022-09-05T08:40:10.098Z,48.19
2022-09-05T08:46:20.013Z,48.18
2022-09-05T08:46:39.246Z,47.99
2022-09-05T08:48:52.308Z,47.78
2022-09-05T08:51:27.370Z,47.96
2022-09-05T08:54:28.406Z,47.76
2022-09-05T08:57:16.862Z,47.82
2022-09-05T09:00:19.897Z,47.66
2022-09-05T09:03:10.216Z,47.75
2022-09-05T09:06:14.426Z,47.82
2022-09-05T09:09:05.934Z,47.49
2022-09-05T09:11:38.833Z,47.47
2022-09-05T09:14:30.905Z,47.63
2022-09-05T09:17:06.686Z,47.56
2022-09-05T09:19:49.447Z,47.64
2022-09-05T09:22:22.454Z,47.35
2022-09-05T09:25:15.365Z,47.53
2022-09-05T09:28:46.494Z,47.52
2022-09-05T09:30:29.613Z,47.43
2022-09-05T09:32:59.403Z,47.60
2022-09-05T09:35:53.618Z,47.34
2022-09-05T09:39:13.090Z,47.21
2022-09-05T09:41:49.735Z,47.55
2022-09-05T09:44:52.296Z,47.42
2022-09-05T09:47:51.259Z,47.28
2022-09-05T09:51:00.853Z,47.55
2022-09-05T09:53:40.361Z,47.18
2022-09-05T09:56:44.478Z,47.26
2022-09-05T09:59:13.744Z,47.29
2022-09-05T10:01:52.415Z,47.42
2022-09-05T10:10:54.453Z,47.24
2022-09-05T10:11:03.928Z,47.17
2022-09-05T10:11:09.482Z,46.98
2022-09-05T10:13:33.590Z,47.30
2022-09-05T10:16:30.113Z,47.13
2022-09-05T10:25:25.499Z,46.99
2022-09-05T10:28:07.806Z,46.96
2022-09-05T10:32:32.624Z,46.99
2022-09-05T10:35:12.998Z,46.83
2022-09-05T10:36:28.648Z,46.97
2022-09-05T10:39:21.167Z,46.89
2022-09-05T10:42:03.074Z,46.86
2022-09-05T10:44:40.543Z,46.49
2022-09-05T10:47:15.541Z,47.03
2022-09-05T10:49:44.431Z,47.33
2022-09-05T10:52:34.903Z,46.85
2022-09-05T10:55:26.137Z,46.83
2022-09-05T10:59:26.063Z,46.97
2022-09-05T11:02:30.354Z,47.20
2022-09-05T11:04:49.602Z,46.82
2022-09-05T11:07:24.872Z,46.15
2022-09-05T11:10:44.131Z,46.28
2022-09-05T11:13:20.353Z,46.34
2022-09-05T11:16:04.691Z,44.96
2022-09-05T11:19:00.403Z,45.32
2022-09-05T11:21:49.703Z,45.77
2022-09-05T11:24:37.415Z,44.55
2022-09-05T11:27:25.242Z,44.70
2022-09-05T11:29:55.362Z,44.47
2022-09-05T11:34:24.772Z,43.67
2022-09-05T11:39:47.800Z,44.85
2022-09-05T11:40:10.677Z,45.38
2022-09-05T11:41:47.699Z,45.42
2022-09-05T11:44:36.177Z,45.33
2022-09-05T11:47:28.689Z,46.18
2022-09-05T11:50:15.167Z,45.96
2022-09-05T11:53:06.580Z,45.92
2022-09-05T11:55:53.150Z,44.90
2022-09-05T11:58:44.944Z,43.70
2022-09-05T12:01:41.258Z,44.26
2022-09-05T12:04:28.637Z,44.85
2022-09-05T12:07:30.503Z,44.64
2022-09-05T12:10:00.526Z,44.66
2022-09-05T12:12:40.997Z,44.03
2022-09-05T12:15:37.646Z,43.98
2022-09-05T12:18:19.478Z,43.56
2022-09-05T12:21:19.888Z,43.76
2022-09-05T12:24:59.221Z,41.44
2022-09-05T12:27:43.706Z,42.56
2022-09-05T12:29:59.609Z,43.15
2022-09-05T12:36:02.501Z,40.87
2022-09-05T12:36:04.141Z,42.19
2022-09-05T12:40:53.695Z,41.78
2022-09-05T12:41:45.179Z,42.83
2022-09-05T12:44:44.280Z,42.38
2022-09-05T12:47:18.713Z,42.22
2022-09-05T12:50:15.091Z,42.74
2022-09-05T12:52:44.904Z,41.44
2022-09-05T12:56:28.255Z,42.45
2022-09-05T13:02:58.987Z,42.50
2022-09-05T13:03:08.338Z,42.27
2022-09-05T13:04:32.039Z,42.43
2022-09-05T13:07:02.193Z,42.10
2022-09-05T13:09:44.798Z,41.70
2022-09-05T13:14:49.233Z,41.70
2022-09-05T13:15:23.937Z,41.78
2022-09-05T13:18:01.864Z,41.75
2022-09-05T13:20:36.605Z,42.25
2022-09-05T13:23:20.751Z,41.95
2022-09-05T13:25:58.438Z,41.73
2022-09-05T13:28:26.635Z,42.07
2022-09-05T13:32:57.356Z,42.48
2022-09-05T13:38:10.023Z,42.49
2022-09-05T13:38:14.033Z,40.43
2022-09-05T13:39:42.669Z,38.66
2022-09-05T13:42:11.080Z,39.11
2022-09-05T13:44:40.365Z,39.78
2022-09-05T13:47:29.641Z,41.24
2022-09-05T13:50:17.414Z,41.68
2022-09-05T13:52:46.230Z,40.29
2022-09-05T13:55:21.061Z,39.05
2022-09-05T13:58:01.404Z,40.74
2022-09-05T14:00:48.080Z,41.27
2022-09-05T14:03:56.433Z,41.18
2022-09-05T14:06:48.746Z,41.36
2022-09-05T14:09:35.725Z,40.77
2022-09-05T14:12:39.203Z,39.78
2022-09-05T14:15:13.740Z,40.65
2022-09-05T14:18:21.351Z,40.73
2022-09-05T14:21:17.763Z,40.95
2022-09-05T14:23:56.552Z,40.94
2022-09-05T14:26:35.304Z,41.34
2022-09-05T14:29:03.878Z,41.59
2022-09-05T14:37:36.101Z,41.60
2022-09-05T14:37:49.769Z,41.53
2022-09-05T14:38:05.728Z,41.30
2022-09-05T14:40:46.609Z,41.22
2022-09-05T14:43:51.640Z,41.30
2022-09-05T14:46:51.592Z,41.35
2022-09-05T14:49:34.534Z,41.05
2022-09-05T14:52:35.452Z,41.19
2022-09-05T15:02:43.423Z,41.07
2022-09-05T15:02:49.218Z,40.85
2022-09-05T15:06:33.328Z,40.79
2022-09-05T15:11:25.642Z,40.79
2022-09-05T15:12:27.958Z,40.85
2022-09-05T15:14:34.524Z,40.55
2022-09-05T15:17:03.623Z,40.59
2022-09-05T15:20:09.197Z,40.24
2022-09-05T15:22:41.808Z,40.10
2022-09-05T15:25:19.887Z,40.44
2022-09-05T15:27:48.173Z,40.13
2022-09-05T15:30:31.989Z,40.56
2022-09-05T15:33:26.288Z,40.22
2022-09-05T15:35:52.947Z,40.49
2022-09-05T15:38:33.619Z,40.13
2022-09-05T15:41:22.907Z,40.48
2022-09-05T15:43:58.159Z,40.33
2022-09-05T15:46:39.001Z,40.49
2022-09-05T15:49:08.983Z,40.25
2022-09-05T15:51:47.304Z,40.54
2022-09-05T15:54:27.015Z,40.17
2022-09-05T15:57:06.032Z,40.44
2022-09-05T15:59:46.969Z,40.40
2022-09-05T16:02:30.833Z,40.17
2022-09-05T16:10:30.170Z,40.15
2022-09-05T16:10:42.604Z,40.45
2022-09-05T16:14:15.264Z,41.07
2022-09-05T16:23:15.094Z,41.15
2022-09-05T16:23:23.410Z,41.96
2022-09-05T16:23:26.205Z,41.99
2022-09-05T16:25:35.309Z,43.12
2022-09-05T16:28:15.190Z,43.60
2022-09-05T16:30:41.682Z,43.49
2022-09-05T16:33:21.722Z,43.97
2022-09-05T16:35:49.606Z,44.36
2022-09-05T16:38:52.147Z,44.07
2022-09-05T16:41:24.600Z,44.17
2022-09-05T16:44:16.860Z,44.48
2022-09-05T16:47:08.264Z,44.47
2022-09-05T16:49:45.388Z,44.27
2022-09-05T16:52:17.736Z,44.69
2022-09-05T16:54:48.399Z,44.43
2022-09-05T16:57:24.068Z,44.33
2022-09-05T16:59:50.586Z,44.83
2022-09-05T17:02:35.438Z,44.75
2022-09-05T17:05:20.019Z,44.76
2022-09-05T17:08:06.646Z,44.46
2022-09-05T17:10:41.617Z,44.59
2022-09-05T17:13:09.611Z,44.65
2022-09-05T17:15:52.234Z,44.85
2022-09-05T17:18:24.215Z,44.54
2022-09-05T17:20:54.513Z,44.81
2022-09-05T17:29:16.695Z,44.63
2022-09-05T17:29:29.830Z,44.83
2022-09-05T17:29:47.278Z,45.16
2022-09-05T17:31:58.117Z,45.03
2022-09-05T17:35:17.074Z,45.01
2022-09-05T17:38:12.456Z,45.09
2022-09-05T17:40:44.623Z,45.81
2022-09-05T17:43:28.482Z,45.63
2022-09-05T17:46:13.493Z,47.00
2022-09-05T17:48:46.226Z,46.17
2022-09-05T17:51:26.084Z,46.45
2022-09-05T17:54:03.090Z,46.84
2022-09-05T17:56:37.253Z,46.11
2022-09-05T17:59:12.805Z,45.98
2022-09-05T18:01:44.092Z,45.70
2022-09-05T18:04:17.955Z,45.56
2022-09-05T18:06:47.125Z,45.60
2022-09-05T18:13:12.692Z,45.86
2022-09-05T18:15:39.330Z,45.68
2022-09-05T18:18:16.907Z,45.36
2022-09-05T18:21:21.241Z,45.57
2022-09-05T18:23:54.543Z,45.82
2022-09-05T18:26:23.300Z,45.92
2022-09-05T18:29:21.148Z,45.68
2022-09-05T18:32:11.162Z,45.88
2022-09-05T18:34:37.516Z,45.89
2022-09-05T18:37:36.125Z,46.24
2022-09-05T18:40:05.894Z,46.18
2022-09-05T18:42:34.382Z,46.18
2022-09-05T18:45:15.240Z,45.82
2022-09-05T18:47:57.254Z,45.82
2022-09-05T18:50:28.702Z,46.13
2022-09-05T18:53:10.189Z,46.17
2022-09-05T18:56:12.617Z,45.98
2022-09-05T18:59:09.612Z,45.92
2022-09-05T19:01:58.610Z,46.04
2022-09-05T19:04:39.665Z,46.32
2022-09-05T19:07:09.947Z,46.29
2022-09-05T19:09:37.260Z,46.35
2022-09-05T19:12:33.217Z,46.60
2022-09-05T19:14:58.927Z,46.51
2022-09-05T19:17:34.737Z,46.75
2022-09-05T19:20:10.908Z,47.09
2022-09-05T19:23:10.941Z,46.59
2022-09-05T19:25:45.358Z,46.39
2022-09-05T19:36:58.791Z,46.55
2022-09-05T19:36:59.407Z,46.37
2022-09-05T19:37:12.524Z,46.79
2022-09-05T19:37:26.197Z,46.82
2022-09-05T19:43:09.487Z,47.14
2022-09-05T19:47:40.059Z,47.35
2022-09-05T19:47:40.611Z,47.37
2022-09-05T19:51:16.035Z,47.67
2022-09-05T19:53:55.174Z,47.56
2022-09-05T19:56:44.454Z,47.64
2022-09-05T19:59:41.519Z,47.57
2022-09-05T20:02:11.599Z,47.56
2022-09-05T20:04:47.947Z,47.77
2022-09-05T20:07:21.210Z,47.61
2022-09-05T20:09:48.444Z,47.46
2022-09-05T20:12:29.188Z,47.74
2022-09-05T20:14:55.718Z,47.82
2022-09-05T20:17:23.337Z,47.76
2022-09-05T20:19:49.880Z,47.89
2022-09-05T20:22:47.028Z,48.53
2022-09-05T20:25:35.824Z,48.00
2022-09-05T20:28:09.882Z,47.96
2022-09-05T20:30:37.310Z,48.09
2022-09-05T20:33:30.896Z,48.32
2022-09-05T20:43:12.375Z,47.89
2022-09-05T20:43:22.134Z,48.38
2022-09-05T20:43:29.407Z,48.06
2022-09-05T20:44:32.777Z,48.27
2022-09-05T20:50:26.057Z,48.13
2022-09-05T20:54:23.199Z,48.16
2022-09-05T20:54:28.321Z,47.87
2022-09-05T20:55:40.052Z,47.43
2022-09-05T20:58:15.928Z,47.77
2022-09-05T21:01:20.057Z,47.74
2022-09-05T21:03:39.661Z,47.53
2022-09-05T21:06:22.038Z,47.51
2022-09-05T21:08:50.122Z,47.98
2022-09-05T21:11:16.710Z,47.78
2022-09-05T21:13:52.282Z,47.67
2022-09-05T21:16:21.546Z,47.69
2022-09-05T21:18:48.595Z,47.52
2022-09-05T21:21:31.926Z,47.56
2022-09-05T21:24:16.165Z,47.57
2022-09-05T21:26:45.003Z,47.42
2022-09-05T21:29:11.330Z,47.53
2022-09-05T21:31:43.732Z,47.55
2022-09-05T21:34:13.131Z,47.48
2022-09-05T21:36:41.339Z,47.47
2022-09-05T21:39:07.921Z,47.60
2022-09-05T21:41:36.792Z,47.26
2022-09-05T21:47:38.726Z,47.29
2022-09-05T21:47:41.845Z,47.20
2022-09-05T21:49:40.675Z,47.43
2022-09-05T21:52:08.092Z,47.32
2022-09-05T21:59:14.753Z,47.62
2022-09-05T21:59:27.217Z,47.41
2022-09-05T22:00:12.715Z,47.41
2022-09-05T22:02:39.341Z,47.25
2022-09-05T22:05:06.064Z,47.24
2022-09-05T22:07:34.670Z,47.19
2022-09-05T22:10:05.210Z,47.29
2022-09-05T22:12:36.743Z,47.50
2022-09-05T22:15:27.168Z,47.43
2022-09-05T22:17:50.697Z,47.27
2022-09-05T22:20:17.904Z,47.05
2022-09-05T22:22:45.258Z,47.22
2022-09-05T22:25:29.560Z,47.43
2022-09-05T22:28:06.447Z,47.16
2022-09-05T22:30:35.358Z,47.34
2022-09-05T22:33:05.323Z,47.19
2022-09-05T22:35:35.309Z,47.28
2022-09-05T22:38:10.533Z,47.07
2022-09-05T22:40:39.831Z,47.16
2022-09-05T22:43:07.579Z,47.45
2022-09-05T22:45:35.415Z,47.24
2022-09-05T22:48:09.621Z,47.13
2022-09-05T22:50:36.563Z,47.07
2022-09-05T22:53:06.734Z,47.04
2022-09-05T22:55:37.394Z,47.12
2022-09-05T22:58:04.500Z,47.01
2022-09-05T23:00:30.995Z,46.75
2022-09-05T23:02:58.624Z,47.02
2022-09-05T23:05:25.341Z,47.06
2022-09-05T23:07:52.176Z,47.08
2022-09-05T23:10:18.750Z,47.15
2022-09-05T23:12:46.050Z,47.01
2022-09-05T23:15:12.606Z,46.99
2022-09-05T23:17:39.125Z,47.16
2022-09-05T23:20:06.053Z,47.45
2022-09-05T23:22:34.896Z,47.07
2022-09-05T23:25:01.387Z,47.08
2022-09-05T23:27:29.867Z,47.23
2022-09-05T23:29:56.360Z,47.08
2022-09-05T23:32:22.852Z,47.16
2022-09-05T23:34:50.184Z,47.37
2022-09-05T23:37:16.704Z,47.47
2022-09-05T23:42:10.304Z,47.06
2022-09-05T23:44:36.811Z,47.25
2022-09-05T23:47:03.318Z,47.21
2022-09-05T23:49:29.809Z,47.13
2022-09-05T23:51:56.326Z,47.19
2022-09-05T23:54:22.824Z,47.32
2022-09-05T23:56:49.328Z,47.51
2022-09-05T23:59:15.824Z,47.25
